Oden, Michigan
Current Conditions -  °F | °C
As of 9:55 PM on Sunday 23 Nov 2014 (Local Time) from KMGN Reporting Station
Moderate Rain Moderate Rain  
Wind Chill: 39°   Ceiling: 6000
Heat Index: 43°   Visibility: 5mi
Dew Point: 43°   Wind: 7mph
Humidity: 99%   Direction: 70°ENE
Pressure: 29.41"   Gusts: NA
Location:  45.42°N, 84.83°W
Report Text: KMGN 240255Z AUTO 07006KT 5SM RA SCT023 SCT034 OVC060 06/06 A2941 RMK AO2 T00630062
Loading
Personal Weather Stations






























Interactive Weather Map New forecast layout! Learn more

10-Day Weather Forecast

Advertisements
Track Severe Weather on mobile